Benguela Stream — PENR — position and weather

sailwx.info

Track history (hours):
 
Tides and Currents Weather Stations Pressure Air Temp Water Temp Dewpoint Dewpoint Depression Visibility Wind Speed Wind Dir Waves Ship Positions

Benguela Stream

Last reported at 2014-Aug-22 12:00 UTC. Time now 2014-Aug-22 15:45 UTC.
Position N 45°06' W 020°30'.

Length 150 m; beam 13 m.

Type: Ship. MMSI: 244455000.

Barometer 1023.6 mb
Air temperature 20.5 ° C
Visibility: greater than 10.8 NM
Dewpoint 10.4 ° C
Water temperature 20.1 ° C

Date/timePositionNaut miles runAvg speedWind from/ knotsBaromVisibWave heightAir tempDewpointWater temp
2014-Aug-22 12:00N 45°06' W 020°30'86318.2 1023.610.8 20.510.420.1
2014-Aug-20 12:33N 49°35' W 000°20'1616.0
2014-Aug-20 11:33N 49°30' E 000°03'4 4.3
2014-Aug-20 10:33N 49°28' E 000°09'0 0.0
2014-Aug-20 09:33N 49°28' E 000°09'0 0.0
2014-Aug-20 08:33N 49°28' E 000°09'0 0.0
2014-Aug-20 07:33N 49°28' E 000°09'0 0.0
2014-Aug-20 06:33N 49°28' E 000°09'0 0.0
2014-Aug-20 05:33N 49°28' E 000°09'0 0.0
2014-Aug-20 04:33N 49°28' E 000°09'0 0.0
2014-Aug-20 03:33N 49°28' E 000°09'1 1.3
2014-Aug-20 02:33N 49°28' E 000°07'10 9.8
2014-Aug-20 01:33N 49°30' W 000°08'5 5.3
2014-Aug-20 00:33N 49°32' W 000°16'1 0.8
2014-Aug-19 23:30N 49°33' W 000°16'3 2.8
2014-Aug-19 22:34N 49°35' W 000°16'6118.7
2014-Aug-19 19:18N 50°30' W 000°57'1216.3
2014-Aug-19 18:33N 50°42' W 000°59'6 5.6
2014-Aug-19 17:33N 50°46' W 001°05'2 2.3
2014-Aug-19 16:32N 50°49' W 001°05'0 0.0
2014-Aug-19 15:32N 50°49' W 001°05'0 0.0
2014-Aug-19 14:32N 50°49' W 001°05'0 0.0
2014-Aug-19 13:32N 50°49' W 001°05'0 0.0
2014-Aug-19 12:32N 50°49' W 001°05'0 0.0
2014-Aug-19 11:32N 50°49' W 001°05'0 0.0
2014-Aug-19 10:32N 50°49' W 001°05'0 0.0
2014-Aug-19 09:32N 50°49' W 001°05'0 0.0
2014-Aug-19 08:32N 50°49' W 001°05'0 0.0
2014-Aug-19 07:32N 50°49' W 001°05'0 0.0
2014-Aug-19 06:32N 50°49' W 001°05'0 0.0
2014-Aug-19 05:32N 50°49' W 001°05'0 0.0
2014-Aug-19 04:32N 50°49' W 001°05'0 0.0
2014-Aug-19 03:32N 50°49' W 001°05'0 0.0
2014-Aug-19 02:32N 50°49' W 001°05'0 0.0
2014-Aug-19 01:32N 50°49' W 001°05'0 0.0
2014-Aug-19 00:32N 50°49' W 001°05'0 0.0
2014-Aug-18 23:32N 50°49' W 001°05'0 0.0
2014-Aug-18 22:32N 50°49' W 001°05'0 0.0
2014-Aug-18 21:32N 50°49' W 001°05'0 0.0
2014-Aug-18 20:32N 50°49' W 001°05'0 0.0
2014-Aug-18 19:32N 50°49' W 001°05'0 0.0
2014-Aug-18 18:32N 50°49' W 001°05'0 0.0
2014-Aug-18 17:32N 50°49' W 001°05'0 0.0
2014-Aug-18 16:32N 50°49' W 001°05'0 0.0
2014-Aug-18 15:32N 50°49' W 001°05'0 0.0
2014-Aug-18 14:32N 50°49' W 001°05'0 0.0
2014-Aug-18 13:32N 50°49' W 001°05'0 0.0
2014-Aug-18 12:32N 50°49' W 001°05'0 0.0
2014-Aug-18 11:32N 50°49' W 001°05'0 0.0
2014-Aug-18 10:32N 50°49' W 001°05'0 0.0
2014-Aug-18 09:32N 50°49' W 001°05'0 0.0
2014-Aug-18 08:32N 50°49' W 001°05'0 0.0
2014-Aug-18 07:32N 50°49' W 001°05'0 0.0
2014-Aug-18 06:32N 50°49' W 001°05'0 0.0
2014-Aug-18 05:32N 50°49' W 001°05'0 0.0
2014-Aug-18 04:32N 50°49' W 001°05'0 0.0
2014-Aug-18 03:32N 50°49' W 001°05'0 0.0
2014-Aug-18 02:32N 50°49' W 001°05'0 0.0
2014-Aug-18 01:32N 50°49' W 001°05'0 0.0
2014-Aug-18 00:32N 50°49' W 001°05'10 1.7
2014-Aug-17 18:33N 50°39' W 000°59'1212.3
2014-Aug-17 17:34N 50°29' W 001°10'32418.4
2014-Aug-17 00:00N 49°12' W 009°18'21918.2 1022.110.8 17.512.118.0
2014-Aug-16 12:00N 48°42' W 014°48'45418.9 280 / 51027.710.8 19.510.918.4
2014-Aug-15 12:00N 46°36' W 025°36'11018.3 120 / 81024.7 0.5 0.517.517.5
2014-Aug-15 06:00N 46°00' W 028°06'11719.5 150 / 111021.2 0.3 1.020.019.519.3
2014-Aug-15 00:00N 45°18' W 030°42'22418.7 1019.910.8 20.219.621.0
2014-Aug-14 12:00N 43°48' W 035°30'22518.8 999 / 21013.5 0.5 20.518.920.8
2014-Aug-14 00:00N 42°00' W 040°00'11318.8 1014.910.8 21.519.523.0
2014-Aug-13 18:00N 41°06' W 042°12'10918.2 050 / 101015.710.8 0.524.219.724.2
2014-Aug-13 12:00N 40°06' W 044°12'22218.5 360 / 51017.410.8 25.018.824.4
2014-Aug-13 00:00N 38°06' W 048°12'11619.3 1019.310.8 25.818.326.0
2014-Aug-12 18:00N 37°00' W 050°12'   290 / 101020.2 5.4 0.528.018.726.6
Track history (hours):
 
Tides and Currents Weather Stations Pressure Air Temp Water Temp Dewpoint Dewpoint Depression Visibility Wind Speed Wind Dir Waves Ship Positions

Benguela Stream

Last reported at 2014-Aug-22 12:00 UTC. Time now 2014-Aug-22 15:45 UTC.
Position N 45°06' W 020°30'.

Length 150 m; beam 13 m.

Type: Ship. MMSI: 244455000.

Barometer 1023.6 mb
Air temperature 20.5 ° C
Visibility: greater than 10.8 NM
Dewpoint 10.4 ° C
Water temperature 20.1 ° C

Date/timePositionNaut miles runAvg speedWind from/ knotsBaromVisibWave heightAir tempDewpointWater temp
2014-Aug-22 12:00N 45°06' W 020°30'86318.2 1023.610.8 20.510.420.1
2014-Aug-20 12:33N 49°35' W 000°20'1616.0
2014-Aug-20 11:33N 49°30' E 000°03'4 4.3
2014-Aug-20 10:33N 49°28' E 000°09'0 0.0
2014-Aug-20 09:33N 49°28' E 000°09'0 0.0
2014-Aug-20 08:33N 49°28' E 000°09'0 0.0
2014-Aug-20 07:33N 49°28' E 000°09'0 0.0
2014-Aug-20 06:33N 49°28' E 000°09'0 0.0
2014-Aug-20 05:33N 49°28' E 000°09'0 0.0
2014-Aug-20 04:33N 49°28' E 000°09'0 0.0
2014-Aug-20 03:33N 49°28' E 000°09'1 1.3
2014-Aug-20 02:33N 49°28' E 000°07'10 9.8
2014-Aug-20 01:33N 49°30' W 000°08'5 5.3
2014-Aug-20 00:33N 49°32' W 000°16'1 0.8
2014-Aug-19 23:30N 49°33' W 000°16'3 2.8
2014-Aug-19 22:34N 49°35' W 000°16'6118.7
2014-Aug-19 19:18N 50°30' W 000°57'1216.3
2014-Aug-19 18:33N 50°42' W 000°59'6 5.6
2014-Aug-19 17:33N 50°46' W 001°05'2 2.3
2014-Aug-19 16:32N 50°49' W 001°05'0 0.0
2014-Aug-19 15:32N 50°49' W 001°05'0 0.0
2014-Aug-19 14:32N 50°49' W 001°05'0 0.0
2014-Aug-19 13:32N 50°49' W 001°05'0 0.0
2014-Aug-19 12:32N 50°49' W 001°05'0 0.0
2014-Aug-19 11:32N 50°49' W 001°05'0 0.0
2014-Aug-19 10:32N 50°49' W 001°05'0 0.0
2014-Aug-19 09:32N 50°49' W 001°05'0 0.0
2014-Aug-19 08:32N 50°49' W 001°05'0 0.0
2014-Aug-19 07:32N 50°49' W 001°05'0 0.0
2014-Aug-19 06:32N 50°49' W 001°05'0 0.0
2014-Aug-19 05:32N 50°49' W 001°05'0 0.0
2014-Aug-19 04:32N 50°49' W 001°05'0 0.0
2014-Aug-19 03:32N 50°49' W 001°05'0 0.0
2014-Aug-19 02:32N 50°49' W 001°05'0 0.0
2014-Aug-19 01:32N 50°49' W 001°05'0 0.0
2014-Aug-19 00:32N 50°49' W 001°05'0 0.0
2014-Aug-18 23:32N 50°49' W 001°05'0 0.0
2014-Aug-18 22:32N 50°49' W 001°05'0 0.0
2014-Aug-18 21:32N 50°49' W 001°05'0 0.0
2014-Aug-18 20:32N 50°49' W 001°05'0 0.0
2014-Aug-18 19:32N 50°49' W 001°05'0 0.0
2014-Aug-18 18:32N 50°49' W 001°05'0 0.0
2014-Aug-18 17:32N 50°49' W 001°05'0 0.0
2014-Aug-18 16:32N 50°49' W 001°05'0 0.0
2014-Aug-18 15:32N 50°49' W 001°05'0 0.0
2014-Aug-18 14:32N 50°49' W 001°05'0 0.0
2014-Aug-18 13:32N 50°49' W 001°05'0 0.0
2014-Aug-18 12:32N 50°49' W 001°05'0 0.0
2014-Aug-18 11:32N 50°49' W 001°05'0 0.0
2014-Aug-18 10:32N 50°49' W 001°05'0 0.0
2014-Aug-18 09:32N 50°49' W 001°05'0 0.0
2014-Aug-18 08:32N 50°49' W 001°05'0 0.0
2014-Aug-18 07:32N 50°49' W 001°05'0 0.0
2014-Aug-18 06:32N 50°49' W 001°05'0 0.0
2014-Aug-18 05:32N 50°49' W 001°05'0 0.0
2014-Aug-18 04:32N 50°49' W 001°05'0 0.0
2014-Aug-18 03:32N 50°49' W 001°05'0 0.0
2014-Aug-18 02:32N 50°49' W 001°05'0 0.0
2014-Aug-18 01:32N 50°49' W 001°05'0 0.0
2014-Aug-18 00:32N 50°49' W 001°05'10 1.7
2014-Aug-17 18:33N 50°39' W 000°59'1212.3
2014-Aug-17 17:34N 50°29' W 001°10'32418.4
2014-Aug-17 00:00N 49°12' W 009°18'21918.2 1022.110.8 17.512.118.0
2014-Aug-16 12:00N 48°42' W 014°48'45418.9 280 / 51027.710.8 19.510.918.4
2014-Aug-15 12:00N 46°36' W 025°36'11018.3 120 / 81024.7 0.5 0.517.517.5
2014-Aug-15 06:00N 46°00' W 028°06'11719.5 150 / 111021.2 0.3 1.020.019.519.3
2014-Aug-15 00:00N 45°18' W 030°42'22418.7 1019.910.8 20.219.621.0
2014-Aug-14 12:00N 43°48' W 035°30'22518.8 999 / 21013.5 0.5 20.518.920.8
2014-Aug-14 00:00N 42°00' W 040°00'11318.8 1014.910.8 21.519.523.0
2014-Aug-13 18:00N 41°06' W 042°12'10918.2 050 / 101015.710.8 0.524.219.724.2
2014-Aug-13 12:00N 40°06' W 044°12'22218.5 360 / 51017.410.8 25.018.824.4
2014-Aug-13 00:00N 38°06' W 048°12'11619.3 1019.310.8 25.818.326.0
2014-Aug-12 18:00N 37°00' W 050°12'   290 / 101020.2 5.4 0.528.018.726.6

Dump ship's entire track history